createdAt,value
2023-02-14T00:01:42.367Z,2.75
2023-02-14T00:04:10.588Z,2.71
2023-02-14T00:06:43.109Z,2.52
2023-02-14T00:09:15.310Z,2.45
2023-02-14T00:11:44.156Z,2.36
2023-02-14T00:14:30.762Z,2.54
2023-02-14T00:16:58.959Z,2.57
2023-02-14T00:19:27.347Z,2.84
2023-02-14T00:21:56.857Z,2.85
2023-02-14T00:24:27.202Z,2.72
2023-02-14T00:26:55.635Z,2.82
2023-02-14T00:29:26.015Z,2.80
2023-02-14T00:31:54.371Z,2.58
2023-02-14T00:34:23.008Z,2.43
2023-02-14T00:36:51.365Z,2.52
2023-02-14T00:39:21.458Z,2.33
2023-02-14T00:41:49.573Z,2.38
2023-02-14T00:44:18.309Z,2.54
2023-02-14T00:46:46.657Z,2.37
2023-02-14T00:49:14.827Z,2.47
2023-02-14T00:51:43.040Z,2.57
2023-02-14T00:55:25.402Z,2.46
2023-02-14T00:58:20.134Z,2.32
2023-02-14T01:00:48.896Z,2.32
2023-02-14T01:03:17.253Z,2.23
2023-02-14T01:05:45.566Z,2.22
2023-02-14T01:08:13.692Z,2.22
2023-02-14T01:10:43.415Z,2.26
2023-02-14T01:13:11.917Z,2.38
2023-02-14T01:15:44.195Z,2.18
2023-02-14T01:18:12.726Z,2.12
2023-02-14T01:20:41.539Z,2.16
2023-02-14T01:24:23.675Z,2.11
2023-02-14T01:28:24.660Z,2.03
2023-02-14T01:32:25.607Z,2.02
2023-02-14T02:00:25.493Z,2.11
2023-02-14T02:21:22.101Z,1.74
2023-02-14T02:24:32.494Z,1.60
2023-02-14T02:27:56.469Z,1.60
2023-02-14T02:31:08.781Z,1.54
2023-02-14T02:34:13.484Z,1.43
2023-02-14T02:37:31.192Z,1.45
2023-02-14T02:40:34.875Z,1.68
2023-02-14T02:43:16.966Z,1.72
2023-02-14T02:46:08.907Z,1.53
2023-02-14T02:48:46.091Z,1.51
2023-02-14T02:51:42.544Z,1.62
2023-02-14T02:54:21.024Z,1.67
2023-02-14T02:56:55.906Z,1.72
2023-02-14T02:59:29.900Z,1.58
2023-02-14T03:02:06.159Z,1.38
2023-02-14T03:04:53.914Z,1.53
2023-02-14T03:07:36.508Z,1.67
2023-02-14T03:10:16.178Z,1.72
2023-02-14T03:13:33.164Z,1.66
2023-02-14T03:16:33.150Z,1.29
2023-02-14T03:19:34.078Z,1.61
2023-02-14T03:22:15.399Z,1.65
2023-02-14T03:24:51.924Z,1.54
2023-02-14T03:27:27.536Z,1.43
2023-02-14T03:30:03.811Z,1.36
2023-02-14T03:32:39.873Z,1.48
2023-02-14T03:35:18.003Z,1.45
2023-02-14T03:37:56.239Z,1.59
2023-02-14T03:40:29.688Z,1.46
2023-02-14T03:43:07.007Z,1.48
2023-02-14T03:45:40.487Z,1.07
2023-02-14T03:48:13.942Z,1.15
2023-02-14T03:50:47.317Z,1.31
2023-02-14T03:53:20.576Z,1.47
2023-02-14T03:55:57.034Z,1.49
2023-02-14T03:58:32.557Z,1.54
2023-02-14T04:01:06.711Z,1.40
2023-02-14T04:03:40.239Z,1.29
2023-02-14T04:06:09.164Z,1.28
2023-02-14T04:08:37.373Z,1.40
2023-02-14T04:11:07.250Z,1.39
2023-02-14T04:13:39.992Z,1.42
2023-02-14T04:16:09.097Z,1.44
2023-02-14T04:18:54.912Z,1.34
2023-02-14T04:21:23.096Z,1.40
2023-02-14T04:23:51.364Z,1.31
2023-02-14T04:26:19.620Z,1.48
2023-02-14T04:28:49.312Z,1.47
2023-02-14T04:31:17.757Z,1.33
2023-02-14T04:33:48.061Z,1.20
2023-02-14T04:36:16.504Z,1.16
2023-02-14T04:38:45.313Z,1.08
2023-02-14T04:41:13.674Z,1.16
2023-02-14T04:43:41.914Z,1.02
2023-02-14T04:46:11.651Z,1.03
2023-02-14T04:48:40.291Z,1.03
2023-02-14T04:51:08.487Z,0.91
2023-02-14T04:53:40.208Z,0.78
2023-02-14T04:56:09.169Z,0.95
2023-02-14T04:58:37.406Z,0.96
2023-02-14T05:01:05.713Z,1.07
2023-02-14T05:03:35.384Z,1.16
2023-02-14T05:06:03.582Z,1.08
2023-02-14T05:08:31.731Z,1.07
2023-02-14T05:11:00.359Z,1.05
2023-02-14T05:13:28.982Z,1.09
2023-02-14T05:15:57.354Z,1.10
2023-02-14T05:18:25.666Z,0.95
2023-02-14T05:20:56.316Z,0.79
2023-02-14T05:23:24.949Z,0.91
2023-02-14T05:25:53.706Z,0.93
2023-02-14T05:28:22.211Z,0.81
2023-02-14T05:30:52.429Z,0.88
2023-02-14T05:33:20.792Z,0.92
2023-02-14T05:35:49.034Z,0.78
2023-02-14T05:38:19.097Z,0.60
2023-02-14T05:40:47.607Z,0.50
2023-02-14T05:43:15.789Z,0.49
2023-02-14T05:45:44.620Z,0.65
2023-02-14T05:48:13.276Z,0.74
2023-02-14T05:50:42.456Z,0.77
2023-02-14T05:53:10.926Z,0.85
2023-02-14T05:55:40.766Z,0.73
2023-02-14T05:58:09.349Z,0.77
2023-02-14T06:00:39.364Z,0.74
2023-02-14T06:03:09.293Z,0.81
2023-02-14T06:05:37.510Z,0.78
2023-02-14T06:08:05.807Z,0.83
2023-02-14T06:10:34.171Z,0.98
2023-02-14T06:13:08.626Z,0.97
2023-02-14T06:15:37.281Z,1.01
2023-02-14T06:18:06.781Z,0.90
2023-02-14T06:20:35.672Z,0.77
2023-02-14T06:23:04.198Z,0.82
2023-02-14T06:25:33.867Z,0.96
2023-02-14T06:28:03.590Z,0.83
2023-02-14T06:30:32.212Z,0.79
2023-02-14T06:33:00.636Z,0.80
2023-02-14T06:35:28.865Z,0.84
2023-02-14T06:37:57.272Z,0.89
2023-02-14T06:40:25.535Z,0.74
2023-02-14T06:42:53.737Z,0.37
2023-02-14T06:45:23.402Z,0.32
2023-02-14T06:47:51.714Z,0.49
2023-02-14T06:50:20.198Z,0.65
2023-02-14T06:52:48.425Z,0.73
2023-02-14T06:55:16.707Z,0.83
2023-02-14T06:57:45.709Z,0.69
2023-02-14T07:00:15.808Z,0.61
2023-02-14T07:02:45.659Z,0.56
2023-02-14T07:05:15.301Z,0.71
2023-02-14T07:07:43.586Z,0.86
2023-02-14T07:10:12.806Z,0.80
2023-02-14T07:12:41.503Z,1.00
2023-02-14T07:15:12.116Z,1.02
2023-02-14T07:17:40.726Z,0.97
2023-02-14T07:20:12.525Z,0.94
2023-02-14T07:22:41.166Z,0.80
2023-02-14T07:25:10.391Z,0.69
2023-02-14T07:27:38.985Z,0.77
2023-02-14T07:30:10.393Z,0.86
2023-02-14T07:32:39.480Z,0.71
2023-02-14T07:35:10.465Z,0.75
2023-02-14T07:37:38.807Z,0.67
2023-02-14T07:40:14.527Z,0.91
2023-02-14T07:42:43.831Z,1.06
2023-02-14T07:45:21.856Z,1.25
2023-02-14T07:47:51.566Z,1.41
2023-02-14T07:50:22.358Z,1.36
2023-02-14T07:52:50.726Z,1.49
2023-02-14T07:55:19.708Z,1.66
2023-02-14T07:57:49.322Z,1.76
2023-02-14T08:00:18.821Z,1.81
2023-02-14T08:02:46.996Z,1.74
2023-02-14T08:05:15.442Z,1.91
2023-02-14T08:07:47.237Z,2.08
2023-02-14T08:10:16.187Z,2.16
2023-02-14T08:13:03.587Z,2.18
2023-02-14T08:15:52.878Z,2.09
2023-02-14T08:18:23.732Z,2.10
2023-02-14T08:20:52.548Z,2.09
2023-02-14T08:23:22.667Z,2.13
2023-02-14T08:25:51.577Z,2.22
2023-02-14T08:28:23.746Z,2.40
2023-02-14T08:30:52.599Z,2.33
2023-02-14T08:33:21.325Z,2.49
2023-02-14T08:35:49.831Z,2.56
2023-02-14T08:38:18.202Z,2.77
2023-02-14T08:40:48.242Z,3.01
2023-02-14T08:43:16.881Z,3.24
2023-02-14T08:45:45.043Z,3.47
2023-02-14T08:48:14.540Z,3.55
2023-02-14T08:50:42.797Z,3.63
2023-02-14T08:53:13.391Z,3.74
2023-02-14T08:55:42.153Z,3.97
2023-02-14T08:58:11.827Z,4.25
2023-02-14T09:00:40.115Z,4.43
2023-02-14T09:03:08.520Z,4.46
2023-02-14T09:05:36.867Z,4.43
2023-02-14T09:08:05.416Z,4.77
2023-02-14T09:10:33.676Z,4.51
2023-02-14T09:13:01.941Z,4.71
2023-02-14T09:15:31.660Z,4.78
2023-02-14T09:17:59.872Z,4.96
2023-02-14T09:20:28.212Z,5.13
2023-02-14T09:22:57.253Z,5.31
2023-02-14T09:25:25.460Z,5.39
2023-02-14T09:27:53.717Z,5.64
2023-02-14T09:30:22.011Z,5.64
2023-02-14T09:32:53.984Z,5.85
2023-02-14T09:35:22.399Z,6.00
2023-02-14T09:38:08.091Z,5.94
2023-02-14T09:40:36.666Z,5.94
2023-02-14T09:43:12.941Z,6.36
2023-02-14T09:45:41.683Z,6.49
2023-02-14T09:48:20.678Z,6.51
2023-02-14T09:50:54.073Z,6.71
2023-02-14T09:53:27.684Z,6.60
2023-02-14T09:56:05.691Z,6.94
2023-02-14T09:58:41.757Z,7.15
2023-02-14T10:01:18.225Z,7.37
2023-02-14T10:04:25.511Z,7.36
2023-02-14T10:07:01.599Z,7.55
2023-02-14T10:09:54.207Z,7.80
2023-02-14T10:12:27.809Z,8.06
2023-02-14T10:15:00.679Z,8.20
2023-02-14T10:17:40.975Z,8.53
2023-02-14T10:20:24.141Z,8.57
2023-02-14T10:23:04.365Z,8.44
2023-02-14T10:25:41.574Z,8.69
2023-02-14T10:28:16.856Z,8.78
2023-02-14T10:30:56.774Z,8.94
2023-02-14T10:33:30.482Z,9.11
2023-02-14T10:36:05.148Z,9.16
2023-02-14T10:38:45.285Z,9.37
2023-02-14T10:41:29.315Z,9.29
2023-02-14T10:44:18.355Z,9.48
2023-02-14T10:46:55.285Z,9.67
2023-02-14T10:49:41.219Z,9.83
2023-02-14T10:52:21.883Z,10.10
2023-02-14T10:54:55.645Z,10.14
2023-02-14T10:57:31.235Z,9.74
2023-02-14T11:00:03.346Z,9.56
2023-02-14T11:02:35.593Z,9.85
2023-02-14T11:05:06.145Z,10.18
2023-02-14T11:07:35.709Z,10.23
2023-02-14T11:10:04.041Z,10.19
2023-02-14T11:12:38.628Z,9.89
2023-02-14T11:15:22.897Z,10.16
2023-02-14T11:18:10.441Z,10.31
2023-02-14T11:20:39.214Z,10.55
2023-02-14T11:23:22.480Z,10.77
2023-02-14T11:25:55.331Z,10.84
2023-02-14T11:28:23.697Z,11.09
2023-02-14T11:30:53.045Z,11.17
2023-02-14T11:33:38.342Z,11.03
2023-02-14T11:36:12.814Z,11.23
2023-02-14T11:38:45.440Z,11.18
2023-02-14T11:41:16.209Z,11.30
2023-02-14T11:43:49.175Z,11.21
2023-02-14T11:46:28.847Z,11.23
2023-02-14T11:49:00.502Z,11.23
2023-02-14T11:51:32.820Z,11.19
2023-02-14T11:54:05.271Z,11.25
2023-02-14T11:56:54.849Z,11.40
2023-02-14T11:59:32.109Z,11.34
2023-02-14T12:02:05.228Z,11.51
2023-02-14T12:04:45.672Z,11.52
2023-02-14T12:07:20.409Z,11.68
2023-02-14T12:10:16.819Z,11.89
2023-02-14T12:12:59.547Z,12.04
2023-02-14T12:15:37.653Z,12.11
2023-02-14T12:18:36.506Z,12.19
2023-02-14T12:21:21.252Z,12.20
2023-02-14T12:24:00.659Z,11.89
2023-02-14T12:26:34.879Z,12.02
2023-02-14T12:29:14.329Z,12.00
2023-02-14T12:31:50.384Z,11.92
2023-02-14T12:34:23.022Z,12.23
2023-02-14T12:37:10.038Z,12.02
2023-02-14T12:39:52.450Z,12.05
2023-02-14T12:42:43.436Z,12.29
2023-02-14T12:45:21.551Z,12.44
2023-02-14T12:48:02.691Z,12.33
2023-02-14T12:50:46.372Z,12.51
2023-02-14T12:53:43.607Z,12.65
2023-02-14T12:56:22.184Z,12.26
2023-02-14T12:59:08.102Z,12.29
2023-02-14T13:02:21.264Z,12.30
2023-02-14T13:05:01.977Z,12.65
2023-02-14T13:08:00.609Z,12.25
2023-02-14T13:10:45.535Z,12.33
2023-02-14T13:13:29.891Z,12.33
2023-02-14T13:16:12.801Z,12.82
2023-02-14T13:18:50.713Z,12.51
2023-02-14T13:21:24.436Z,12.55
2023-02-14T13:23:55.899Z,12.71
2023-02-14T13:26:31.292Z,12.62
2023-02-14T13:29:07.117Z,12.70
2023-02-14T13:31:37.848Z,12.70
2023-02-14T13:34:20.934Z,12.64
2023-02-14T13:36:50.342Z,12.57
2023-02-14T13:39:27.224Z,12.69
2023-02-14T13:41:55.465Z,12.68
2023-02-14T13:44:44.085Z,12.81
2023-02-14T13:47:20.978Z,12.65
2023-02-14T13:49:52.530Z,12.81
2023-02-14T13:52:41.509Z,12.43
2023-02-14T13:55:17.516Z,12.54
2023-02-14T13:57:46.300Z,12.87
2023-02-14T14:00:40.330Z,12.74
2023-02-14T14:03:16.661Z,12.70
2023-02-14T14:06:03.698Z,13.16
2023-02-14T14:08:48.371Z,12.75
2023-02-14T14:11:50.780Z,12.54
2023-02-14T14:14:36.146Z,12.54
2023-02-14T14:17:26.020Z,12.60
2023-02-14T14:19:58.084Z,12.80
2023-02-14T14:22:27.340Z,12.62
2023-02-14T14:24:59.253Z,12.80
2023-02-14T14:27:33.314Z,12.75
2023-02-14T14:30:04.703Z,12.92
2023-02-14T14:32:35.299Z,12.82
2023-02-14T14:35:09.181Z,12.61
2023-02-14T14:37:49.902Z,12.76
2023-02-14T14:40:25.985Z,12.70
2023-02-14T14:42:55.262Z,12.80
2023-02-14T14:45:27.585Z,12.94
2023-02-14T14:48:00.190Z,12.76
2023-02-14T14:50:32.063Z,12.72
2023-02-14T14:53:03.076Z,12.73
2023-02-14T14:55:36.643Z,12.76
2023-02-14T14:58:08.705Z,12.80
2023-02-14T15:00:42.208Z,13.02
2023-02-14T15:03:18.077Z,13.25
2023-02-14T15:05:50.976Z,13.13
2023-02-14T15:08:31.787Z,13.39
2023-02-14T15:11:06.072Z,13.42
2023-02-14T15:13:49.548Z,13.26
2023-02-14T15:16:24.207Z,12.99
2023-02-14T15:18:55.277Z,12.82
2023-02-14T15:21:25.280Z,12.77
2023-02-14T15:23:54.871Z,12.50
2023-02-14T15:26:31.421Z,12.34
2023-02-14T15:29:02.305Z,12.47
2023-02-14T15:31:34.179Z,12.37
2023-02-14T15:34:06.784Z,12.46
2023-02-14T15:36:37.057Z,12.43
2023-02-14T15:39:09.520Z,12.31
2023-02-14T15:41:43.245Z,12.23
2023-02-14T15:44:21.853Z,12.12
2023-02-14T15:46:57.336Z,11.95
2023-02-14T15:49:34.017Z,11.95
2023-02-14T15:52:07.597Z,11.83
2023-02-14T15:54:39.955Z,11.77
2023-02-14T15:57:19.151Z,11.74
2023-02-14T15:59:48.577Z,11.73
2023-02-14T16:02:30.978Z,11.57
2023-02-14T16:05:07.831Z,11.44
2023-02-14T16:07:37.420Z,11.41
2023-02-14T16:10:24.366Z,11.43
2023-02-14T16:13:00.080Z,11.33
2023-02-14T16:15:31.721Z,11.31
2023-02-14T16:18:01.076Z,11.20
2023-02-14T16:20:47.003Z,11.29
2023-02-14T16:23:27.088Z,11.30
2023-02-14T16:25:57.254Z,11.29
2023-02-14T16:28:30.375Z,11.13
2023-02-14T16:31:02.872Z,10.98
2023-02-14T16:33:33.974Z,10.79
2023-02-14T16:36:09.331Z,10.70
2023-02-14T16:38:46.016Z,10.67
2023-02-14T16:41:20.730Z,10.60
2023-02-14T16:43:50.152Z,10.44
2023-02-14T16:46:22.583Z,10.22
2023-02-14T16:48:52.392Z,10.18
2023-02-14T16:51:23.315Z,10.04
2023-02-14T16:53:53.674Z,9.92
2023-02-14T16:56:27.517Z,9.77
2023-02-14T16:58:57.773Z,9.67
2023-02-14T17:01:26.266Z,9.68
2023-02-14T17:03:54.487Z,9.59
2023-02-14T17:06:28.365Z,9.53
2023-02-14T17:08:59.801Z,9.35
2023-02-14T17:11:31.846Z,9.17
2023-02-14T17:14:00.235Z,9.14
2023-02-14T17:16:30.584Z,9.27
2023-02-14T17:18:59.038Z,9.29
2023-02-14T17:21:27.202Z,9.27
2023-02-14T17:23:57.157Z,9.34
2023-02-14T17:26:25.339Z,9.20
2023-02-14T17:28:53.533Z,8.86
2023-02-14T17:31:21.814Z,8.84
2023-02-14T17:33:51.507Z,8.81
2023-02-14T17:36:19.822Z,8.91
2023-02-14T17:38:47.995Z,8.86
2023-02-14T17:41:21.648Z,8.45
2023-02-14T17:43:51.880Z,8.39
2023-02-14T17:46:20.373Z,8.27
2023-02-14T17:48:49.566Z,8.19
2023-02-14T17:51:20.297Z,7.94
2023-02-14T17:53:49.125Z,8.14
2023-02-14T17:56:21.537Z,8.25
2023-02-14T17:58:51.856Z,8.07
2023-02-14T18:01:23.539Z,7.91
2023-02-14T18:03:52.398Z,7.85
2023-02-14T18:06:21.257Z,7.79
2023-02-14T18:08:53.123Z,7.72
2023-02-14T18:11:22.985Z,7.82
2023-02-14T18:13:52.101Z,7.77
2023-02-14T18:16:21.379Z,7.91
2023-02-14T18:18:49.931Z,7.76
2023-02-14T18:21:21.410Z,7.78
2023-02-14T18:23:50.367Z,7.64
2023-02-14T18:26:19.758Z,7.24
2023-02-14T18:28:51.077Z,7.05
2023-02-14T18:31:20.225Z,7.18
2023-02-14T18:33:50.837Z,7.06
2023-02-14T18:36:24.091Z,7.17
2023-02-14T18:38:52.573Z,7.24
2023-02-14T18:41:21.082Z,7.22
2023-02-14T18:43:52.195Z,7.13
2023-02-14T18:46:23.493Z,7.16
2023-02-14T18:48:52.012Z,7.18
2023-02-14T18:51:23.455Z,7.10
2023-02-14T18:53:52.862Z,7.08
2023-02-14T18:56:23.591Z,6.71
2023-02-14T18:58:57.753Z,6.52
2023-02-14T19:01:30.462Z,6.36
2023-02-14T19:04:00.620Z,6.47
2023-02-14T19:06:31.595Z,6.29
2023-02-14T19:09:00.057Z,6.03
2023-02-14T19:11:32.651Z,6.13
2023-02-14T19:14:05.213Z,6.23
2023-02-14T19:16:36.727Z,6.12
2023-02-14T19:19:05.495Z,5.83
2023-02-14T19:21:38.275Z,6.00
2023-02-14T19:24:08.052Z,6.06
2023-02-14T19:26:40.609Z,5.98
2023-02-14T19:29:11.759Z,5.96
2023-02-14T19:31:42.345Z,5.85
2023-02-14T19:34:17.862Z,5.95
2023-02-14T19:36:46.430Z,5.57
2023-02-14T19:39:16.082Z,5.62
2023-02-14T19:41:44.343Z,5.67
2023-02-14T19:44:15.721Z,5.58
2023-02-14T19:46:46.278Z,5.43
2023-02-14T19:49:16.849Z,5.17
2023-02-14T19:51:45.929Z,5.36
2023-02-14T19:54:15.384Z,5.48
2023-02-14T19:56:46.823Z,5.40
2023-02-14T19:59:20.132Z,5.40
2023-02-14T20:01:51.449Z,5.41
2023-02-14T20:04:22.495Z,5.43
2023-02-14T20:06:51.547Z,5.42
2023-02-14T20:09:21.815Z,5.18
2023-02-14T20:11:54.176Z,5.19
2023-02-14T20:14:26.680Z,5.16
2023-02-14T20:16:57.287Z,4.97
2023-02-14T20:19:29.233Z,4.89
2023-02-14T20:21:57.688Z,4.88
2023-02-14T20:24:28.442Z,4.85
2023-02-14T20:26:57.436Z,4.97
2023-02-14T20:29:27.515Z,4.98
2023-02-14T20:31:59.813Z,5.04
2023-02-14T20:34:28.561Z,4.78
2023-02-14T20:36:59.043Z,4.94
2023-02-14T20:39:30.940Z,4.87
2023-02-14T20:41:59.308Z,4.64
2023-02-14T20:44:30.060Z,4.79
2023-02-14T20:46:58.837Z,4.72
2023-02-14T20:49:29.800Z,4.65
2023-02-14T20:51:58.497Z,4.74
2023-02-14T20:54:29.147Z,4.75
2023-02-14T20:56:58.453Z,4.73
2023-02-14T20:59:28.772Z,4.79
2023-02-14T21:01:58.847Z,4.65
2023-02-14T21:04:27.280Z,4.67
2023-02-14T21:06:57.548Z,4.60
2023-02-14T21:09:25.875Z,4.55
2023-02-14T21:11:54.741Z,4.44
2023-02-14T21:14:22.962Z,4.61
2023-02-14T21:16:52.764Z,4.57
2023-02-14T21:19:21.130Z,4.12
2023-02-14T21:21:49.385Z,4.16
2023-02-14T21:24:18.006Z,4.32
2023-02-14T21:26:46.433Z,4.30
2023-02-14T21:29:14.889Z,4.27
2023-02-14T21:31:43.343Z,4.00
2023-02-14T21:34:14.927Z,3.76
2023-02-14T21:36:43.370Z,3.90
2023-02-14T21:39:11.639Z,3.91
2023-02-14T21:41:39.774Z,3.89
2023-02-14T21:44:07.994Z,3.97
2023-02-14T21:46:41.014Z,3.92
2023-02-14T21:49:26.772Z,3.87
2023-02-14T21:51:56.356Z,3.85
2023-02-14T21:54:24.726Z,3.58
2023-02-14T21:56:53.098Z,3.69
2023-02-14T21:59:21.502Z,3.83
2023-02-14T22:01:49.730Z,3.75
2023-02-14T22:04:17.989Z,3.57
2023-02-14T22:06:46.581Z,3.57
2023-02-14T22:09:18.014Z,3.46
2023-02-14T22:11:47.476Z,3.28
2023-02-14T22:14:16.148Z,3.34
2023-02-14T22:16:44.432Z,3.35
2023-02-14T22:19:16.846Z,3.40
2023-02-14T22:21:45.266Z,3.38
2023-02-14T22:24:15.147Z,3.16
2023-02-14T22:26:43.416Z,3.09
2023-02-14T22:29:13.686Z,3.22
2023-02-14T22:31:47.536Z,3.21
2023-02-14T22:34:19.388Z,3.13
2023-02-14T22:36:48.674Z,3.13
2023-02-14T22:39:18.873Z,2.94
2023-02-14T22:41:47.566Z,3.13
2023-02-14T22:44:15.776Z,3.13
2023-02-14T22:46:44.129Z,3.09
2023-02-14T22:49:12.308Z,3.10
2023-02-14T22:51:42.893Z,3.18
2023-02-14T22:54:13.881Z,3.25
2023-02-14T22:56:45.875Z,3.24
2023-02-14T22:59:20.448Z,3.24
2023-02-14T23:01:49.667Z,3.06
2023-02-14T23:04:21.614Z,2.97
2023-02-14T23:06:51.720Z,3.00
2023-02-14T23:09:21.085Z,3.08
2023-02-14T23:11:51.928Z,3.09
2023-02-14T23:14:38.562Z,3.09
2023-02-14T23:17:25.275Z,2.95
2023-02-14T23:20:10.832Z,2.81
2023-02-14T23:22:41.632Z,2.96
2023-02-14T23:25:13.006Z,2.94
2023-02-14T23:27:47.159Z,2.95
2023-02-14T23:30:18.586Z,3.00
2023-02-14T23:32:48.034Z,3.03
2023-02-14T23:35:17.010Z,2.90
2023-02-14T23:37:45.167Z,2.87
2023-02-14T23:40:13.865Z,2.91
2023-02-14T23:42:43.595Z,2.91
2023-02-14T23:45:29.393Z,2.74
2023-02-14T23:47:57.642Z,2.64
2023-02-14T23:50:25.871Z,2.63
2023-02-14T23:52:54.058Z,2.62
2023-02-14T23:55:22.330Z,2.65
2023-02-14T23:57:51.883Z,2.67
